sensor_id;sensor_type;location;lat;lon;timestamp;temperature;humidity
31113;DHT22;17763;48.730;9.136;2022-09-17T00:01:04;11.30;99.90
31113;DHT22;17763;48.730;9.136;2022-09-17T00:03:30;11.30;99.90
31113;DHT22;17763;48.730;9.136;2022-09-17T00:06:10;11.30;99.90
31113;DHT22;17763;48.730;9.136;2022-09-17T00:08:38;11.30;99.90
31113;DHT22;17763;48.730;9.136;2022-09-17T00:11:15;11.20;99.90
31113;DHT22;17763;48.730;9.136;2022-09-17T00:13:45;11.20;99.90
31113;DHT22;17763;48.730;9.136;2022-09-17T00:16:12;11.20;99.90
31113;DHT22;17763;48.730;9.136;2022-09-17T00:18:38;11.20;99.90
31113;DHT22;17763;48.730;9.136;2022-09-17T00:21:07;11.20;99.90
31113;DHT22;17763;48.730;9.136;2022-09-17T00:23:39;11.20;99.90
31113;DHT22;17763;48.730;9.136;2022-09-17T00:26:05;11.20;99.90
31113;DHT22;17763;48.730;9.136;2022-09-17T00:28:31;11.10;99.90
31113;DHT22;17763;48.730;9.136;2022-09-17T00:30:59;11.10;99.90
31113;DHT22;17763;48.730;9.136;2022-09-17T00:33:25;11.20;99.90
31113;DHT22;17763;48.730;9.136;2022-09-17T00:35:58;11.10;99.90
31113;DHT22;17763;48.730;9.136;2022-09-17T00:38:24;11.10;99.90
31113;DHT22;17763;48.730;9.136;2022-09-17T00:40:50;11.10;99.90
31113;DHT22;17763;48.730;9.136;2022-09-17T00:43:38;11.10;99.90
31113;DHT22;17763;48.730;9.136;2022-09-17T00:46:16;11.10;99.90
31113;DHT22;17763;48.730;9.136;2022-09-17T00:48:45;11.10;99.90
31113;DHT22;17763;48.730;9.136;2022-09-17T00:51:14;11.00;99.90
31113;DHT22;17763;48.730;9.136;2022-09-17T00:53:42;11.00;99.90
31113;DHT22;17763;48.730;9.136;2022-09-17T00:56:21;11.00;99.90
31113;DHT22;17763;48.730;9.136;2022-09-17T00:58:50;11.00;99.90
31113;DHT22;17763;48.730;9.136;2022-09-17T01:01:17;11.00;99.90
31113;DHT22;17763;48.730;9.136;2022-09-17T01:03:42;11.00;99.90
31113;DHT22;17763;48.730;9.136;2022-09-17T01:32:21;11.00;99.90
31113;DHT22;17763;48.730;9.136;2022-09-17T01:35:05;11.00;99.90
31113;DHT22;17763;48.730;9.136;2022-09-17T01:37:40;10.90;99.90
31113;DHT22;17763;48.730;9.136;2022-09-17T01:40:38;10.90;99.90
31113;DHT22;17763;48.730;9.136;2022-09-17T01:43:32;10.90;99.90
31113;DHT22;17763;48.730;9.136;2022-09-17T01:46:06;11.00;99.90
31113;DHT22;17763;48.730;9.136;2022-09-17T01:48:38;11.00;99.90
31113;DHT22;17763;48.730;9.136;2022-09-17T01:53:37;11.00;99.90
31113;DHT22;17763;48.730;9.136;2022-09-17T01:56:07;11.00;99.90
31113;DHT22;17763;48.730;9.136;2022-09-17T01:58:44;11.00;99.90
31113;DHT22;17763;48.730;9.136;2022-09-17T02:01:17;11.00;99.90
31113;DHT22;17763;48.730;9.136;2022-09-17T02:06:28;11.00;99.90
31113;DHT22;17763;48.730;9.136;2022-09-17T02:11:39;11.00;99.90
31113;DHT22;17763;48.730;9.136;2022-09-17T02:14:21;11.00;99.90
31113;DHT22;17763;48.730;9.136;2022-09-17T02:16:57;10.90;99.90
31113;DHT22;17763;48.730;9.136;2022-09-17T02:19:31;10.90;99.90
31113;DHT22;17763;48.730;9.136;2022-09-17T02:22:28;10.80;99.90
31113;DHT22;17763;48.730;9.136;2022-09-17T02:29:59;10.90;99.90
31113;DHT22;17763;48.730;9.136;2022-09-17T02:32:24;10.80;99.90
31113;DHT22;17763;48.730;9.136;2022-09-17T02:34:50;10.90;99.90
31113;DHT22;17763;48.730;9.136;2022-09-17T02:37:18;10.90;99.90
31113;DHT22;17763;48.730;9.136;2022-09-17T02:39:46;10.80;99.90
31113;DHT22;17763;48.730;9.136;2022-09-17T02:58:31;10.80;99.90
31113;DHT22;17763;48.730;9.136;2022-09-17T03:01:03;10.80;99.90
31113;DHT22;17763;48.730;9.136;2022-09-17T03:03:43;10.80;99.90
31113;DHT22;17763;48.730;9.136;2022-09-17T03:06:09;10.80;99.90
31113;DHT22;17763;48.730;9.136;2022-09-17T03:08:38;10.80;99.90
31113;DHT22;17763;48.730;9.136;2022-09-17T03:11:05;10.70;99.90
31113;DHT22;17763;48.730;9.136;2022-09-17T03:13:33;10.70;99.90
31113;DHT22;17763;48.730;9.136;2022-09-17T03:16:00;10.70;99.90
31113;DHT22;17763;48.730;9.136;2022-09-17T03:18:26;10.70;99.90
31113;DHT22;17763;48.730;9.136;2022-09-17T03:20:51;10.70;99.90
31113;DHT22;17763;48.730;9.136;2022-09-17T03:23:17;10.60;99.90
31113;DHT22;17763;48.730;9.136;2022-09-17T03:25:42;10.60;99.90
31113;DHT22;17763;48.730;9.136;2022-09-17T03:28:10;10.70;99.90
31113;DHT22;17763;48.730;9.136;2022-09-17T03:30:36;10.60;99.90
31113;DHT22;17763;48.730;9.136;2022-09-17T03:33:04;10.50;99.90
31113;DHT22;17763;48.730;9.136;2022-09-17T03:35:29;10.40;99.90
31113;DHT22;17763;48.730;9.136;2022-09-17T03:37:55;10.50;99.90
31113;DHT22;17763;48.730;9.136;2022-09-17T03:40:20;10.40;99.90
31113;DHT22;17763;48.730;9.136;2022-09-17T03:42:46;10.40;99.90
31113;DHT22;17763;48.730;9.136;2022-09-17T03:45:12;10.50;99.90
31113;DHT22;17763;48.730;9.136;2022-09-17T03:47:37;10.50;99.90
31113;DHT22;17763;48.730;9.136;2022-09-17T03:50:04;10.50;99.90
31113;DHT22;17763;48.730;9.136;2022-09-17T03:52:30;10.50;99.90
31113;DHT22;17763;48.730;9.136;2022-09-17T03:54:56;10.50;99.90
31113;DHT22;17763;48.730;9.136;2022-09-17T03:57:21;10.60;99.90
31113;DHT22;17763;48.730;9.136;2022-09-17T03:59:48;10.50;99.90
31113;DHT22;17763;48.730;9.136;2022-09-17T04:02:13;10.50;99.90
31113;DHT22;17763;48.730;9.136;2022-09-17T04:04:39;10.50;99.90
31113;DHT22;17763;48.730;9.136;2022-09-17T04:07:05;10.50;99.90
31113;DHT22;17763;48.730;9.136;2022-09-17T04:09:30;10.50;99.90
31113;DHT22;17763;48.730;9.136;2022-09-17T04:11:56;10.50;99.90
31113;DHT22;17763;48.730;9.136;2022-09-17T04:14:24;10.50;99.90
31113;DHT22;17763;48.730;9.136;2022-09-17T04:16:49;10.50;99.90
31113;DHT22;17763;48.730;9.136;2022-09-17T04:19:15;10.50;99.90
31113;DHT22;17763;48.730;9.136;2022-09-17T04:21:40;10.50;99.90
31113;DHT22;17763;48.730;9.136;2022-09-17T04:24:06;10.40;99.90
31113;DHT22;17763;48.730;9.136;2022-09-17T04:26:32;10.40;99.90
31113;DHT22;17763;48.730;9.136;2022-09-17T04:28:57;10.40;99.90
31113;DHT22;17763;48.730;9.136;2022-09-17T04:31:23;10.40;99.90
31113;DHT22;17763;48.730;9.136;2022-09-17T04:33:49;10.40;99.90
31113;DHT22;17763;48.730;9.136;2022-09-17T04:36:17;10.30;99.90
31113;DHT22;17763;48.730;9.136;2022-09-17T04:38:43;10.30;99.90
31113;DHT22;17763;48.730;9.136;2022-09-17T04:41:11;10.30;99.90
31113;DHT22;17763;48.730;9.136;2022-09-17T04:43:37;10.30;99.90
31113;DHT22;17763;48.730;9.136;2022-09-17T04:46:03;10.30;99.90
31113;DHT22;17763;48.730;9.136;2022-09-17T04:48:29;10.30;99.90
31113;DHT22;17763;48.730;9.136;2022-09-17T04:50:54;10.30;99.90
31113;DHT22;17763;48.730;9.136;2022-09-17T04:53:20;10.30;99.90
31113;DHT22;17763;48.730;9.136;2022-09-17T04:55:45;10.30;99.90
31113;DHT22;17763;48.730;9.136;2022-09-17T04:58:11;10.30;99.90
31113;DHT22;17763;48.730;9.136;2022-09-17T05:00:36;10.30;99.90
31113;DHT22;17763;48.730;9.136;2022-09-17T05:03:02;10.30;99.90
31113;DHT22;17763;48.730;9.136;2022-09-17T05:05:28;10.30;99.90
31113;DHT22;17763;48.730;9.136;2022-09-17T05:07:54;10.30;99.90
31113;DHT22;17763;48.730;9.136;2022-09-17T05:10:22;10.30;99.90
31113;DHT22;17763;48.730;9.136;2022-09-17T05:12:53;10.20;99.90
31113;DHT22;17763;48.730;9.136;2022-09-17T05:15:19;10.30;99.90
31113;DHT22;17763;48.730;9.136;2022-09-17T05:17:45;10.20;99.90
31113;DHT22;17763;48.730;9.136;2022-09-17T05:20:14;10.20;99.90
31113;DHT22;17763;48.730;9.136;2022-09-17T05:22:44;10.20;99.90
31113;DHT22;17763;48.730;9.136;2022-09-17T05:25:12;10.20;99.90
31113;DHT22;17763;48.730;9.136;2022-09-17T05:27:41;10.20;99.90
31113;DHT22;17763;48.730;9.136;2022-09-17T05:30:08;10.20;99.90
31113;DHT22;17763;48.730;9.136;2022-09-17T05:32:39;10.20;99.90
31113;DHT22;17763;48.730;9.136;2022-09-17T05:35:05;10.20;99.90
31113;DHT22;17763;48.730;9.136;2022-09-17T05:37:31;10.30;99.90
31113;DHT22;17763;48.730;9.136;2022-09-17T05:39:59;10.20;99.90
31113;DHT22;17763;48.730;9.136;2022-09-17T05:42:25;10.20;99.90
31113;DHT22;17763;48.730;9.136;2022-09-17T05:44:51;10.30;99.90
31113;DHT22;17763;48.730;9.136;2022-09-17T05:47:16;10.20;99.90
31113;DHT22;17763;48.730;9.136;2022-09-17T05:49:42;10.20;99.90
31113;DHT22;17763;48.730;9.136;2022-09-17T05:52:12;10.30;99.90
31113;DHT22;17763;48.730;9.136;2022-09-17T05:54:40;10.30;99.90
31113;DHT22;17763;48.730;9.136;2022-09-17T05:57:06;10.30;99.90
31113;DHT22;17763;48.730;9.136;2022-09-17T05:59:32;10.30;99.90
31113;DHT22;17763;48.730;9.136;2022-09-17T06:01:58;10.30;99.90
31113;DHT22;17763;48.730;9.136;2022-09-17T06:04:23;10.30;99.90
31113;DHT22;17763;48.730;9.136;2022-09-17T06:06:51;10.30;99.90
31113;DHT22;17763;48.730;9.136;2022-09-17T06:09:19;10.20;99.90
31113;DHT22;17763;48.730;9.136;2022-09-17T06:11:45;10.20;99.90
31113;DHT22;17763;48.730;9.136;2022-09-17T06:14:15;10.20;99.90
31113;DHT22;17763;48.730;9.136;2022-09-17T06:16:41;10.30;99.90
31113;DHT22;17763;48.730;9.136;2022-09-17T06:19:09;10.30;99.90
31113;DHT22;17763;48.730;9.136;2022-09-17T06:21:34;10.40;99.90
31113;DHT22;17763;48.730;9.136;2022-09-17T06:24:04;10.40;99.90
31113;DHT22;17763;48.730;9.136;2022-09-17T06:26:30;10.40;99.90
31113;DHT22;17763;48.730;9.136;2022-09-17T06:29:02;10.40;99.90
31113;DHT22;17763;48.730;9.136;2022-09-17T06:31:28;10.40;99.90
31113;DHT22;17763;48.730;9.136;2022-09-17T06:33:55;10.40;99.90
31113;DHT22;17763;48.730;9.136;2022-09-17T06:36:21;10.30;99.90
31113;DHT22;17763;48.730;9.136;2022-09-17T06:38:47;10.40;99.90
31113;DHT22;17763;48.730;9.136;2022-09-17T06:41:15;10.40;99.90
31113;DHT22;17763;48.730;9.136;2022-09-17T06:43:41;10.40;99.90
31113;DHT22;17763;48.730;9.136;2022-09-17T06:46:08;10.40;99.90
31113;DHT22;17763;48.730;9.136;2022-09-17T06:48:35;10.40;99.90
31113;DHT22;17763;48.730;9.136;2022-09-17T06:51:04;10.40;99.90
31113;DHT22;17763;48.730;9.136;2022-09-17T06:53:30;10.50;99.90
31113;DHT22;17763;48.730;9.136;2022-09-17T06:55:57;10.50;99.90
31113;DHT22;17763;48.730;9.136;2022-09-17T06:58:24;10.50;99.90
31113;DHT22;17763;48.730;9.136;2022-09-17T07:00:50;10.50;99.90
31113;DHT22;17763;48.730;9.136;2022-09-17T07:03:15;10.50;99.90
31113;DHT22;17763;48.730;9.136;2022-09-17T07:05:44;10.50;99.90
31113;DHT22;17763;48.730;9.136;2022-09-17T07:08:09;10.50;99.90
31113;DHT22;17763;48.730;9.136;2022-09-17T07:10:35;10.60;99.90
31113;DHT22;17763;48.730;9.136;2022-09-17T07:13:01;10.50;99.90
31113;DHT22;17763;48.730;9.136;2022-09-17T07:15:28;10.40;99.90
31113;DHT22;17763;48.730;9.136;2022-09-17T07:17:54;10.50;99.90
31113;DHT22;17763;48.730;9.136;2022-09-17T07:20:19;10.50;99.90
31113;DHT22;17763;48.730;9.136;2022-09-17T07:22:45;10.40;99.90
31113;DHT22;17763;48.730;9.136;2022-09-17T07:25:11;10.40;99.90
31113;DHT22;17763;48.730;9.136;2022-09-17T07:27:36;10.40;99.90
31113;DHT22;17763;48.730;9.136;2022-09-17T07:30:03;10.40;99.90
31113;DHT22;17763;48.730;9.136;2022-09-17T07:32:31;10.40;99.90
31113;DHT22;17763;48.730;9.136;2022-09-17T07:34:57;10.40;99.90
31113;DHT22;17763;48.730;9.136;2022-09-17T07:37:22;10.40;99.90
31113;DHT22;17763;48.730;9.136;2022-09-17T07:39:48;10.50;99.90
31113;DHT22;17763;48.730;9.136;2022-09-17T07:42:14;10.40;99.90
31113;DHT22;17763;48.730;9.136;2022-09-17T07:44:39;10.40;99.90
31113;DHT22;17763;48.730;9.136;2022-09-17T07:47:05;10.30;99.90
31113;DHT22;17763;48.730;9.136;2022-09-17T07:49:30;10.30;99.90
31113;DHT22;17763;48.730;9.136;2022-09-17T07:51:56;10.30;99.90
31113;DHT22;17763;48.730;9.136;2022-09-17T07:54:29;10.30;99.90
31113;DHT22;17763;48.730;9.136;2022-09-17T07:56:55;10.30;99.90
31113;DHT22;17763;48.730;9.136;2022-09-17T07:59:23;10.20;99.90
31113;DHT22;17763;48.730;9.136;2022-09-17T08:01:49;10.10;99.90
31113;DHT22;17763;48.730;9.136;2022-09-17T08:04:15;10.10;99.90
31113;DHT22;17763;48.730;9.136;2022-09-17T08:06:43;10.20;99.90
31113;DHT22;17763;48.730;9.136;2022-09-17T08:09:12;10.20;99.90
31113;DHT22;17763;48.730;9.136;2022-09-17T08:11:40;10.20;99.90
31113;DHT22;17763;48.730;9.136;2022-09-17T08:14:12;10.30;99.90
31113;DHT22;17763;48.730;9.136;2022-09-17T08:16:38;10.30;99.90
31113;DHT22;17763;48.730;9.136;2022-09-17T08:19:04;10.30;99.90
31113;DHT22;17763;48.730;9.136;2022-09-17T08:21:29;10.30;99.90
31113;DHT22;17763;48.730;9.136;2022-09-17T08:23:55;10.40;99.90
31113;DHT22;17763;48.730;9.136;2022-09-17T08:26:24;10.40;99.90
31113;DHT22;17763;48.730;9.136;2022-09-17T08:28:52;10.40;99.90
31113;DHT22;17763;48.730;9.136;2022-09-17T08:31:26;10.40;99.90
31113;DHT22;17763;48.730;9.136;2022-09-17T08:33:54;10.40;99.90
31113;DHT22;17763;48.730;9.136;2022-09-17T08:36:20;10.40;99.90
31113;DHT22;17763;48.730;9.136;2022-09-17T08:38:48;10.40;99.90
31113;DHT22;17763;48.730;9.136;2022-09-17T08:44:10;10.50;99.90
31113;DHT22;17763;48.730;9.136;2022-09-17T08:46:42;10.60;99.90
31113;DHT22;17763;48.730;9.136;2022-09-17T08:57:24;10.80;99.90
31113;DHT22;17763;48.730;9.136;2022-09-17T08:59:57;10.90;99.90
31113;DHT22;17763;48.730;9.136;2022-09-17T09:05:45;11.00;99.90
31113;DHT22;17763;48.730;9.136;2022-09-17T09:08:21;11.10;99.90
31113;DHT22;17763;48.730;9.136;2022-09-17T09:10:58;11.10;99.90
31113;DHT22;17763;48.730;9.136;2022-09-17T09:13:32;11.20;99.90
31113;DHT22;17763;48.730;9.136;2022-09-17T09:16:04;11.20;99.90
31113;DHT22;17763;48.730;9.136;2022-09-17T09:18:37;11.30;99.90
31113;DHT22;17763;48.730;9.136;2022-09-17T09:26:20;11.40;99.90
31113;DHT22;17763;48.730;9.136;2022-09-17T09:34:14;11.50;99.90
31113;DHT22;17763;48.730;9.136;2022-09-17T09:36:42;11.60;99.90
31113;DHT22;17763;48.730;9.136;2022-09-17T09:39:22;11.60;99.90
31113;DHT22;17763;48.730;9.136;2022-09-17T09:41:57;11.70;99.90
31113;DHT22;17763;48.730;9.136;2022-09-17T09:44:26;11.70;99.90
31113;DHT22;17763;48.730;9.136;2022-09-17T09:56:23;11.70;99.90
31113;DHT22;17763;48.730;9.136;2022-09-17T09:58:30;11.70;99.90
31113;DHT22;17763;48.730;9.136;2022-09-17T10:00:57;11.70;99.90
31113;DHT22;17763;48.730;9.136;2022-09-17T10:03:25;11.70;99.90
31113;DHT22;17763;48.730;9.136;2022-09-17T10:08:18;11.70;99.90
31113;DHT22;17763;48.730;9.136;2022-09-17T10:13:29;11.70;99.90
31113;DHT22;17763;48.730;9.136;2022-09-17T10:15:55;11.90;99.90
31113;DHT22;17763;48.730;9.136;2022-09-17T10:18:23;11.90;99.90
31113;DHT22;17763;48.730;9.136;2022-09-17T10:21:01;12.00;99.90
31113;DHT22;17763;48.730;9.136;2022-09-17T10:23:29;12.00;99.90
31113;DHT22;17763;48.730;9.136;2022-09-17T10:25:58;12.20;99.90
31113;DHT22;17763;48.730;9.136;2022-09-17T10:31:05;12.10;99.90
31113;DHT22;17763;48.730;9.136;2022-09-17T10:33:38;12.00;99.90
31113;DHT22;17763;48.730;9.136;2022-09-17T10:36:11;12.00;99.90
31113;DHT22;17763;48.730;9.136;2022-09-17T10:38:40;12.10;99.90
31113;DHT22;17763;48.730;9.136;2022-09-17T10:41:09;12.10;99.90
31113;DHT22;17763;48.730;9.136;2022-09-17T10:43:35;12.20;99.90
31113;DHT22;17763;48.730;9.136;2022-09-17T10:46:01;12.20;99.90
31113;DHT22;17763;48.730;9.136;2022-09-17T10:48:32;12.30;99.90
31113;DHT22;17763;48.730;9.136;2022-09-17T10:50:59;12.30;99.90
31113;DHT22;17763;48.730;9.136;2022-09-17T10:53:27;12.30;99.90
31113;DHT22;17763;48.730;9.136;2022-09-17T11:05:04;12.60;99.90
31113;DHT22;17763;48.730;9.136;2022-09-17T11:10:32;12.70;99.90
31113;DHT22;17763;48.730;9.136;2022-09-17T11:13:16;12.70;99.90
31113;DHT22;17763;48.730;9.136;2022-09-17T11:18:39;12.60;99.90
31113;DHT22;17763;48.730;9.136;2022-09-17T11:29:07;12.80;98.70
31113;DHT22;17763;48.730;9.136;2022-09-17T11:31:52;12.70;98.60
31113;DHT22;17763;48.730;9.136;2022-09-17T11:34:50;12.80;98.30
31113;DHT22;17763;48.730;9.136;2022-09-17T11:39:59;13.00;97.50
31113;DHT22;17763;48.730;9.136;2022-09-17T11:42:36;13.00;98.20
31113;DHT22;17763;48.730;9.136;2022-09-17T11:45:09;13.10;97.50
31113;DHT22;17763;48.730;9.136;2022-09-17T11:47:41;13.10;95.20
31113;DHT22;17763;48.730;9.136;2022-09-17T11:58:11;13.20;94.30
31113;DHT22;17763;48.730;9.136;2022-09-17T12:00:44;13.20;94.40
31113;DHT22;17763;48.730;9.136;2022-09-17T12:03:37;13.30;93.90
31113;DHT22;17763;48.730;9.136;2022-09-17T12:06:09;13.40;94.20
31113;DHT22;17763;48.730;9.136;2022-09-17T12:11:22;13.60;94.20
31113;DHT22;17763;48.730;9.136;2022-09-17T12:13:53;13.60;92.70
31113;DHT22;17763;48.730;9.136;2022-09-17T12:16:26;13.60;93.50
31113;DHT22;17763;48.730;9.136;2022-09-17T12:24:25;13.40;94.00
31113;DHT22;17763;48.730;9.136;2022-09-17T12:29:49;13.30;94.50
31113;DHT22;17763;48.730;9.136;2022-09-17T12:40:49;13.40;93.50
31113;DHT22;17763;48.730;9.136;2022-09-17T13:00:05;12.60;99.90
31113;DHT22;17763;48.730;9.136;2022-09-17T13:02:56;12.50;99.90
31113;DHT22;17763;48.730;9.136;2022-09-17T13:08:43;12.20;99.90
31113;DHT22;17763;48.730;9.136;2022-09-17T13:11:37;12.10;99.90
31113;DHT22;17763;48.730;9.136;2022-09-17T13:17:17;11.80;99.90
31113;DHT22;17763;48.730;9.136;2022-09-17T13:22:48;11.50;99.90
31113;DHT22;17763;48.730;9.136;2022-09-17T13:25:17;11.30;99.90
31113;DHT22;17763;48.730;9.136;2022-09-17T13:27:47;11.10;99.90
31113;DHT22;17763;48.730;9.136;2022-09-17T13:30:16;11.20;99.90
31113;DHT22;17763;48.730;9.136;2022-09-17T13:32:50;11.20;99.90
31113;DHT22;17763;48.730;9.136;2022-09-17T13:37:56;11.40;99.90
31113;DHT22;17763;48.730;9.136;2022-09-17T13:40:35;11.40;99.90
31113;DHT22;17763;48.730;9.136;2022-09-17T13:45:32;11.50;99.90
31113;DHT22;17763;48.730;9.136;2022-09-17T13:48:10;11.60;99.90
31113;DHT22;17763;48.730;9.136;2022-09-17T13:50:40;11.50;99.90
31113;DHT22;17763;48.730;9.136;2022-09-17T13:55:46;11.70;99.90
31113;DHT22;17763;48.730;9.136;2022-09-17T14:14:14;12.80;99.90
31113;DHT22;17763;48.730;9.136;2022-09-17T14:19:46;13.10;99.90
31113;DHT22;17763;48.730;9.136;2022-09-17T14:22:24;13.30;99.90
31113;DHT22;17763;48.730;9.136;2022-09-17T14:24:52;13.40;99.90
31113;DHT22;17763;48.730;9.136;2022-09-17T14:35:48;13.00;99.90
31113;DHT22;17763;48.730;9.136;2022-09-17T14:38:30;12.90;99.90
31113;DHT22;17763;48.730;9.136;2022-09-17T14:41:06;12.90;99.90
31113;DHT22;17763;48.730;9.136;2022-09-17T14:43:53;13.00;99.90
31113;DHT22;17763;48.730;9.136;2022-09-17T14:46:26;13.00;99.90
31113;DHT22;17763;48.730;9.136;2022-09-17T14:48:53;13.10;99.90
31113;DHT22;17763;48.730;9.136;2022-09-17T14:53:46;13.10;99.90
31113;DHT22;17763;48.730;9.136;2022-09-17T14:56:19;13.20;99.90
31113;DHT22;17763;48.730;9.136;2022-09-17T14:58:50;13.30;99.90
31113;DHT22;17763;48.730;9.136;2022-09-17T15:01:37;13.40;99.90
31113;DHT22;17763;48.730;9.136;2022-09-17T15:04:29;13.60;99.90
31113;DHT22;17763;48.730;9.136;2022-09-17T15:07:08;13.80;99.90
31113;DHT22;17763;48.730;9.136;2022-09-17T15:09:36;13.90;99.90
31113;DHT22;17763;48.730;9.136;2022-09-17T15:12:02;13.90;99.90
31113;DHT22;17763;48.730;9.136;2022-09-17T15:14:36;13.80;99.90
31113;DHT22;17763;48.730;9.136;2022-09-17T15:17:05;13.80;99.90
31113;DHT22;17763;48.730;9.136;2022-09-17T15:19:41;13.70;99.90
31113;DHT22;17763;48.730;9.136;2022-09-17T15:22:12;13.50;99.90
31113;DHT22;17763;48.730;9.136;2022-09-17T15:27:21;13.30;99.90
31113;DHT22;17763;48.730;9.136;2022-09-17T15:29:57;13.30;99.90
31113;DHT22;17763;48.730;9.136;2022-09-17T15:32:27;13.30;99.90
31113;DHT22;17763;48.730;9.136;2022-09-17T15:35:16;13.30;99.90
31113;DHT22;17763;48.730;9.136;2022-09-17T15:37:45;13.30;99.90
31113;DHT22;17763;48.730;9.136;2022-09-17T15:40:40;13.30;99.90
31113;DHT22;17763;48.730;9.136;2022-09-17T15:43:29;13.30;99.90
31113;DHT22;17763;48.730;9.136;2022-09-17T15:46:22;13.30;99.90
31113;DHT22;17763;48.730;9.136;2022-09-17T15:48:49;13.30;99.90
31113;DHT22;17763;48.730;9.136;2022-09-17T15:51:32;13.20;99.90
31113;DHT22;17763;48.730;9.136;2022-09-17T15:54:05;13.20;99.90
31113;DHT22;17763;48.730;9.136;2022-09-17T15:56:39;13.10;99.90
31113;DHT22;17763;48.730;9.136;2022-09-17T16:04:23;13.00;99.90
31113;DHT22;17763;48.730;9.136;2022-09-17T16:12:04;12.80;99.90
31113;DHT22;17763;48.730;9.136;2022-09-17T16:14:30;12.90;99.90
31113;DHT22;17763;48.730;9.136;2022-09-17T16:16:56;12.90;99.90
31113;DHT22;17763;48.730;9.136;2022-09-17T16:19:26;12.80;99.90
31113;DHT22;17763;48.730;9.136;2022-09-17T16:21:54;12.90;99.90
31113;DHT22;17763;48.730;9.136;2022-09-17T16:24:22;12.90;99.90
31113;DHT22;17763;48.730;9.136;2022-09-17T16:26:47;12.80;99.90
31113;DHT22;17763;48.730;9.136;2022-09-17T16:29:15;13.00;99.90
31113;DHT22;17763;48.730;9.136;2022-09-17T16:31:41;13.00;99.90
31113;DHT22;17763;48.730;9.136;2022-09-17T16:34:09;13.10;99.90
31113;DHT22;17763;48.730;9.136;2022-09-17T16:36:34;13.10;99.90
31113;DHT22;17763;48.730;9.136;2022-09-17T16:39:00;13.00;99.90
31113;DHT22;17763;48.730;9.136;2022-09-17T16:41:29;13.00;99.90
31113;DHT22;17763;48.730;9.136;2022-09-17T16:44:01;12.90;99.90
31113;DHT22;17763;48.730;9.136;2022-09-17T16:46:26;12.90;99.90
31113;DHT22;17763;48.730;9.136;2022-09-17T16:48:54;12.80;99.90
31113;DHT22;17763;48.730;9.136;2022-09-17T16:51:20;12.80;99.90
31113;DHT22;17763;48.730;9.136;2022-09-17T16:53:45;12.90;99.90
31113;DHT22;17763;48.730;9.136;2022-09-17T16:56:13;12.90;99.90
31113;DHT22;17763;48.730;9.136;2022-09-17T16:58:42;12.80;99.90
31113;DHT22;17763;48.730;9.136;2022-09-17T17:01:08;12.70;99.90
31113;DHT22;17763;48.730;9.136;2022-09-17T17:03:34;12.70;99.90
31113;DHT22;17763;48.730;9.136;2022-09-17T17:05:59;12.60;99.90
31113;DHT22;17763;48.730;9.136;2022-09-17T17:08:25;12.70;99.90
31113;DHT22;17763;48.730;9.136;2022-09-17T17:10:50;12.60;99.90
31113;DHT22;17763;48.730;9.136;2022-09-17T17:13:18;12.70;99.90
31113;DHT22;17763;48.730;9.136;2022-09-17T17:15:44;12.50;99.90
31113;DHT22;17763;48.730;9.136;2022-09-17T17:18:12;12.40;99.90
31113;DHT22;17763;48.730;9.136;2022-09-17T17:20:37;12.20;99.90
31113;DHT22;17763;48.730;9.136;2022-09-17T17:23:03;12.20;99.90
31113;DHT22;17763;48.730;9.136;2022-09-17T17:25:31;12.20;99.90
31113;DHT22;17763;48.730;9.136;2022-09-17T17:27:57;12.20;99.90
31113;DHT22;17763;48.730;9.136;2022-09-17T17:30:23;12.10;99.90
31113;DHT22;17763;48.730;9.136;2022-09-17T17:32:50;12.20;99.90
31113;DHT22;17763;48.730;9.136;2022-09-17T17:35:16;12.10;99.90
31113;DHT22;17763;48.730;9.136;2022-09-17T17:37:42;12.10;99.90
31113;DHT22;17763;48.730;9.136;2022-09-17T17:40:08;11.90;99.90
31113;DHT22;17763;48.730;9.136;2022-09-17T17:42:37;11.80;99.90
31113;DHT22;17763;48.730;9.136;2022-09-17T17:45:05;11.90;99.90
31113;DHT22;17763;48.730;9.136;2022-09-17T17:47:31;11.80;99.90
31113;DHT22;17763;48.730;9.136;2022-09-17T17:49:59;11.90;99.90
31113;DHT22;17763;48.730;9.136;2022-09-17T17:52:25;11.90;99.90
31113;DHT22;17763;48.730;9.136;2022-09-17T17:54:50;11.90;99.90
31113;DHT22;17763;48.730;9.136;2022-09-17T17:57:17;11.80;99.90
31113;DHT22;17763;48.730;9.136;2022-09-17T17:59:42;11.80;99.90
31113;DHT22;17763;48.730;9.136;2022-09-17T18:02:09;11.80;99.90
31113;DHT22;17763;48.730;9.136;2022-09-17T18:04:35;11.70;99.90
31113;DHT22;17763;48.730;9.136;2022-09-17T18:07:00;11.60;99.90
31113;DHT22;17763;48.730;9.136;2022-09-17T18:09:26;11.50;99.90
31113;DHT22;17763;48.730;9.136;2022-09-17T18:11:51;11.50;99.90
31113;DHT22;17763;48.730;9.136;2022-09-17T18:14:18;11.40;99.90
31113;DHT22;17763;48.730;9.136;2022-09-17T18:16:44;11.40;99.90
31113;DHT22;17763;48.730;9.136;2022-09-17T18:19:10;11.40;99.90
31113;DHT22;17763;48.730;9.136;2022-09-17T18:21:36;11.40;99.90
31113;DHT22;17763;48.730;9.136;2022-09-17T18:24:02;11.40;99.90
31113;DHT22;17763;48.730;9.136;2022-09-17T18:26:30;11.30;99.90
31113;DHT22;17763;48.730;9.136;2022-09-17T18:28:56;11.30;99.90
31113;DHT22;17763;48.730;9.136;2022-09-17T18:31:24;11.30;99.90
31113;DHT22;17763;48.730;9.136;2022-09-17T18:36:28;11.20;99.90
31113;DHT22;17763;48.730;9.136;2022-09-17T18:38:56;11.20;99.90
31113;DHT22;17763;48.730;9.136;2022-09-17T18:41:28;11.30;99.90
31113;DHT22;17763;48.730;9.136;2022-09-17T18:43:54;11.30;99.90
31113;DHT22;17763;48.730;9.136;2022-09-17T18:46:20;11.20;99.90
31113;DHT22;17763;48.730;9.136;2022-09-17T18:48:50;11.20;99.90
31113;DHT22;17763;48.730;9.136;2022-09-17T18:51:15;11.20;99.90
31113;DHT22;17763;48.730;9.136;2022-09-17T18:53:43;11.30;99.90
31113;DHT22;17763;48.730;9.136;2022-09-17T18:56:10;11.40;99.90
31113;DHT22;17763;48.730;9.136;2022-09-17T18:58:50;11.30;99.90
31113;DHT22;17763;48.730;9.136;2022-09-17T19:01:19;11.40;99.90
31113;DHT22;17763;48.730;9.136;2022-09-17T19:03:45;11.40;99.90
31113;DHT22;17763;48.730;9.136;2022-09-17T19:06:15;11.40;99.90
31113;DHT22;17763;48.730;9.136;2022-09-17T19:08:43;11.40;99.90
31113;DHT22;17763;48.730;9.136;2022-09-17T19:11:10;11.40;99.90
31113;DHT22;17763;48.730;9.136;2022-09-17T19:13:44;11.30;99.90
31113;DHT22;17763;48.730;9.136;2022-09-17T19:16:12;11.30;99.90
31113;DHT22;17763;48.730;9.136;2022-09-17T19:18:43;11.30;99.90
31113;DHT22;17763;48.730;9.136;2022-09-17T19:21:18;11.10;99.90
31113;DHT22;17763;48.730;9.136;2022-09-17T19:23:49;10.90;99.90
31113;DHT22;17763;48.730;9.136;2022-09-17T19:26:20;10.80;99.90
31113;DHT22;17763;48.730;9.136;2022-09-17T19:28:47;10.70;99.90
31113;DHT22;17763;48.730;9.136;2022-09-17T19:31:15;10.70;99.90
31113;DHT22;17763;48.730;9.136;2022-09-17T19:33:41;10.70;99.90